createdAt,value
2022-09-14T00:00:06.720Z,16.27
2022-09-14T00:05:14.730Z,16.40
2022-09-14T00:10:20.132Z,16.40
2022-09-14T00:15:27.852Z,16.53
2022-09-14T00:20:33.581Z,16.39
2022-09-14T00:25:38.473Z,16.31
2022-09-14T00:30:47.360Z,16.39
2022-09-14T00:35:52.154Z,16.34
2022-09-14T00:41:00.998Z,16.38
2022-09-14T00:46:08.724Z,16.45
2022-09-14T00:51:14.232Z,16.41
2022-09-14T00:56:19.212Z,16.33
2022-09-14T01:01:28.467Z,16.58
2022-09-14T01:06:39.837Z,16.93
2022-09-14T01:12:03.405Z,16.60
2022-09-14T01:17:18.145Z,16.49
2022-09-14T01:22:29.133Z,16.48
2022-09-14T01:27:41.858Z,16.43
2022-09-14T01:32:55.020Z,16.41
2022-09-14T01:38:04.464Z,16.27
2022-09-14T01:43:17.868Z,16.26
2022-09-14T01:48:27.979Z,16.06
2022-09-14T01:53:38.068Z,16.22
2022-09-14T01:58:49.772Z,16.30
2022-09-14T02:03:59.537Z,16.16
2022-09-14T02:09:07.309Z,15.98
2022-09-14T02:14:15.061Z,15.76
2022-09-14T02:19:23.665Z,15.75
2022-09-14T02:24:31.116Z,15.83
2022-09-14T02:29:41.831Z,15.80
2022-09-14T02:34:56.771Z,15.94
2022-09-14T02:40:13.662Z,15.95
2022-09-14T02:45:31.712Z,15.88
2022-09-14T02:50:42.973Z,15.82
2022-09-14T02:55:51.733Z,15.84
2022-09-14T03:00:59.303Z,15.70
2022-09-14T03:06:04.809Z,15.71
2022-09-14T03:11:09.918Z,15.96
2022-09-14T03:16:18.912Z,15.94
2022-09-14T03:21:24.125Z,15.79
2022-09-14T03:26:30.210Z,15.56
2022-09-14T03:31:38.581Z,15.59
2022-09-14T03:36:43.636Z,15.77
2022-09-14T03:41:48.378Z,16.20
2022-09-14T03:46:55.845Z,16.14
2022-09-14T03:52:01.024Z,16.04
2022-09-14T03:57:07.526Z,16.00
2022-09-14T04:02:15.044Z,15.98
2022-09-14T04:07:20.327Z,15.83
2022-09-14T04:12:25.225Z,15.88
2022-09-14T04:17:32.613Z,15.81
2022-09-14T04:22:37.680Z,15.86
2022-09-14T04:27:42.528Z,15.90
2022-09-14T04:32:49.891Z,16.04
2022-09-14T04:37:54.902Z,16.03
2022-09-14T04:42:59.869Z,16.04
2022-09-14T04:48:07.604Z,16.02
2022-09-14T04:53:12.818Z,16.04
2022-09-14T04:58:17.518Z,16.10
2022-09-14T05:03:25.292Z,16.14
2022-09-14T05:08:30.160Z,16.31
2022-09-14T05:13:35.467Z,16.36
2022-09-14T05:18:44.293Z,16.49
2022-09-14T05:23:57.011Z,16.51
2022-09-14T05:29:04.938Z,16.60
2022-09-14T05:34:12.903Z,16.65
2022-09-14T05:39:23.025Z,16.62
2022-09-14T05:44:28.375Z,16.72
2022-09-14T05:49:35.961Z,16.93
2022-09-14T05:54:41.815Z,16.99
2022-09-14T05:59:47.291Z,16.89
2022-09-14T06:04:54.847Z,16.92
2022-09-14T06:09:59.841Z,16.89
2022-09-14T06:15:04.646Z,16.85
2022-09-14T06:20:14.035Z,16.94
2022-09-14T06:25:19.264Z,17.17
2022-09-14T06:30:24.295Z,17.23
2022-09-14T06:35:31.649Z,17.38
2022-09-14T06:40:36.579Z,17.24
2022-09-14T06:45:41.357Z,17.02
2022-09-14T06:50:48.791Z,16.96
2022-09-14T06:55:55.598Z,16.90
2022-09-14T07:01:15.106Z,16.85
2022-09-14T07:06:27.552Z,16.87
2022-09-14T07:11:32.775Z,16.97
2022-09-14T07:16:42.505Z,17.11
2022-09-14T07:21:53.644Z,17.39
2022-09-14T07:26:59.190Z,17.47
2022-09-14T07:32:05.680Z,17.53
2022-09-14T07:37:16.405Z,17.71
2022-09-14T07:42:21.976Z,17.69
2022-09-14T07:47:28.620Z,17.88
2022-09-14T07:52:38.710Z,18.01
2022-09-14T07:57:55.540Z,17.93
2022-09-14T08:03:01.330Z,17.98
2022-09-14T08:08:09.713Z,17.79
2022-09-14T08:13:16.071Z,17.86
2022-09-14T08:18:21.717Z,17.98
2022-09-14T08:23:32.416Z,17.89
2022-09-14T08:28:39.412Z,18.09
2022-09-14T08:33:47.153Z,18.03
2022-09-14T08:38:54.932Z,18.08
2022-09-14T08:44:05.535Z,18.20
2022-09-14T08:49:20.310Z,18.12
2022-09-14T08:54:28.729Z,18.16
2022-09-14T08:59:46.699Z,18.14
2022-09-14T09:04:59.360Z,17.82
2022-09-14T09:10:11.560Z,17.72
2022-09-14T09:15:24.542Z,17.92
2022-09-14T09:20:33.684Z,17.86
2022-09-14T09:26:00.203Z,17.80
2022-09-14T09:31:14.503Z,17.85
2022-09-14T09:36:49.308Z,18.08
2022-09-14T09:42:01.837Z,18.06
2022-09-14T09:47:07.620Z,18.22
2022-09-14T09:52:15.387Z,18.29
2022-09-14T09:57:31.078Z,18.47
2022-09-14T10:02:39.005Z,18.46
2022-09-14T10:07:55.733Z,18.56
2022-09-14T10:13:04.845Z,18.57
2022-09-14T10:18:18.276Z,18.18
2022-09-14T10:23:27.740Z,18.05
2022-09-14T10:28:37.020Z,18.24
2022-09-14T10:33:42.444Z,18.40
2022-09-14T10:38:53.100Z,18.36
2022-09-14T10:44:33.372Z,18.25
2022-09-14T10:49:52.322Z,18.23
2022-09-14T10:55:23.859Z,18.39
2022-09-14T11:00:33.656Z,18.58
2022-09-14T11:05:48.426Z,18.58
2022-09-14T11:11:25.672Z,18.42
2022-09-14T11:16:49.190Z,18.73
2022-09-14T11:22:04.312Z,18.49
2022-09-14T11:27:17.467Z,18.57
2022-09-14T11:32:28.354Z,18.54
2022-09-14T11:37:42.379Z,18.34
2022-09-14T11:42:52.138Z,18.59
2022-09-14T11:48:03.132Z,18.34
2022-09-14T11:53:16.881Z,18.38
2022-09-14T11:58:24.719Z,18.49
2022-09-14T12:04:05.392Z,18.30
2022-09-14T12:09:46.613Z,18.63
2022-09-14T12:14:56.012Z,18.62
2022-09-14T12:20:22.827Z,18.58
2022-09-14T12:25:41.059Z,18.73
2022-09-14T12:31:16.332Z,18.79
2022-09-14T12:36:52.424Z,18.73
2022-09-14T12:42:27.837Z,18.72
2022-09-14T12:48:00.096Z,18.83
2022-09-14T12:53:29.830Z,18.91
2022-09-14T12:59:30.344Z,18.82
2022-09-14T13:04:39.400Z,18.61
2022-09-14T13:09:50.486Z,18.50
2022-09-14T13:15:04.003Z,18.68
2022-09-14T13:20:23.821Z,18.39
2022-09-14T13:25:32.675Z,18.52
2022-09-14T13:30:42.071Z,18.59
2022-09-14T13:35:50.972Z,18.69
2022-09-14T13:40:58.633Z,18.67
2022-09-14T13:46:11.172Z,18.46
2022-09-14T13:51:20.331Z,18.74
2022-09-14T13:56:31.298Z,18.65
2022-09-14T14:01:42.498Z,18.34
2022-09-14T14:06:47.651Z,18.52
2022-09-14T14:11:57.234Z,18.35
2022-09-14T14:17:37.884Z,18.15
2022-09-14T14:22:43.642Z,18.04
2022-09-14T14:27:51.258Z,17.96
2022-09-14T14:33:01.042Z,17.93
2022-09-14T14:38:05.978Z,18.09
2022-09-14T14:43:17.464Z,18.07
2022-09-14T14:48:25.484Z,17.94
2022-09-14T14:53:30.748Z,18.03
2022-09-14T14:58:37.228Z,18.18
2022-09-14T15:03:45.162Z,18.05
2022-09-14T15:08:51.059Z,18.16
2022-09-14T15:13:56.641Z,18.13
2022-09-14T15:19:04.721Z,18.31
2022-09-14T15:24:10.783Z,18.42
2022-09-14T15:29:18.501Z,18.42
2022-09-14T15:34:26.689Z,18.52
2022-09-14T15:39:33.435Z,18.12
2022-09-14T15:44:39.850Z,18.26
2022-09-14T15:49:47.839Z,18.26
2022-09-14T15:54:52.706Z,18.17
2022-09-14T15:59:57.921Z,18.31
2022-09-14T16:05:05.410Z,18.26
2022-09-14T16:10:12.050Z,18.03
2022-09-14T16:15:17.690Z,18.07
2022-09-14T16:20:25.570Z,17.99
2022-09-14T16:25:30.581Z,18.00
2022-09-14T16:30:35.953Z,17.88
2022-09-14T16:35:43.699Z,17.99
2022-09-14T16:40:49.107Z,17.83
2022-09-14T16:46:03.817Z,17.75
2022-09-14T16:51:12.671Z,17.81
2022-09-14T16:56:23.824Z,17.74
2022-09-14T17:01:31.756Z,17.77
2022-09-14T17:06:43.423Z,17.70
2022-09-14T17:11:49.458Z,17.64
2022-09-14T17:17:02.317Z,17.86
2022-09-14T17:22:10.709Z,17.76
2022-09-14T17:27:19.130Z,17.64
2022-09-14T17:32:24.814Z,17.62
2022-09-14T17:37:33.437Z,17.70
2022-09-14T17:42:39.160Z,17.69
2022-09-14T17:47:45.017Z,17.67
2022-09-14T17:52:53.839Z,17.52
2022-09-14T17:57:59.575Z,17.28
2022-09-14T18:03:05.182Z,17.26
2022-09-14T18:08:13.481Z,17.30
2022-09-14T18:13:18.815Z,17.17
2022-09-14T18:18:24.220Z,17.20
2022-09-14T18:23:32.673Z,17.18
2022-09-14T18:28:39.737Z,17.20
2022-09-14T18:33:52.394Z,17.45
2022-09-14T18:39:01.628Z,16.94
2022-09-14T18:44:14.743Z,17.09
2022-09-14T18:49:21.321Z,17.13
2022-09-14T18:54:32.244Z,17.00
2022-09-14T18:59:38.111Z,17.23
2022-09-14T19:04:44.134Z,17.30
2022-09-14T19:09:52.306Z,17.05
2022-09-14T19:14:58.050Z,16.93
2022-09-14T19:20:05.452Z,17.19
2022-09-14T19:25:17.216Z,16.83
2022-09-14T19:30:22.857Z,16.70
2022-09-14T19:35:28.696Z,16.58
2022-09-14T19:40:37.901Z,16.49
2022-09-14T19:45:43.346Z,16.61
2022-09-14T19:50:48.914Z,16.53
2022-09-14T19:55:57.195Z,16.57
2022-09-14T20:01:02.905Z,16.66
2022-09-14T20:06:11.267Z,16.73
2022-09-14T20:11:21.502Z,16.58
2022-09-14T20:16:29.429Z,16.46
2022-09-14T20:21:36.251Z,16.32
2022-09-14T20:26:45.630Z,16.22
2022-09-14T20:31:57.116Z,16.06
2022-09-14T20:37:03.192Z,16.32
2022-09-14T20:42:11.859Z,16.45
2022-09-14T20:47:17.386Z,16.81
2022-09-14T20:52:22.757Z,16.82
2022-09-14T20:57:35.197Z,16.79
2022-09-14T21:02:40.752Z,16.36
2022-09-14T21:07:56.037Z,16.37
2022-09-14T21:13:04.381Z,16.43
2022-09-14T21:18:09.836Z,16.36
2022-09-14T21:23:15.186Z,16.28
2022-09-14T21:28:23.211Z,16.09
2022-09-14T21:33:28.884Z,16.39
2022-09-14T21:38:34.896Z,16.40
2022-09-14T21:43:44.253Z,16.32
2022-09-14T21:48:49.819Z,16.21
2022-09-14T21:53:57.904Z,16.15
2022-09-14T21:59:10.146Z,15.86
2022-09-14T22:04:18.231Z,15.72
2022-09-14T22:09:25.855Z,15.65
2022-09-14T22:14:33.733Z,15.64
2022-09-14T22:19:40.193Z,15.60
2022-09-14T22:24:45.982Z,15.49
2022-09-14T22:29:54.119Z,15.76
2022-09-14T22:34:59.385Z,15.61
2022-09-14T22:40:05.449Z,15.55
2022-09-14T22:45:14.712Z,15.58
2022-09-14T22:50:20.537Z,15.93
2022-09-14T22:55:25.964Z,15.90
2022-09-14T23:00:34.929Z,15.77
2022-09-14T23:05:41.759Z,15.65
2022-09-14T23:10:47.910Z,15.63
2022-09-14T23:15:56.807Z,15.50
2022-09-14T23:21:06.562Z,15.59
2022-09-14T23:26:14.588Z,15.61
2022-09-14T23:31:24.723Z,15.73
2022-09-14T23:36:30.957Z,15.65
2022-09-14T23:41:36.305Z,15.57
2022-09-14T23:46:44.538Z,15.67
2022-09-14T23:51:49.917Z,15.59
2022-09-14T23:56:56.276Z,15.72
